createdAt,value
2018-09-21T00:00:09.525Z,98346.92
2018-09-21T00:02:37.877Z,98347.56
2018-09-21T00:05:06.286Z,98339.33
2018-09-21T00:07:34.751Z,98332.43
2018-09-21T00:10:03.088Z,98328.38
2018-09-21T00:12:31.481Z,98333.14
2018-09-21T00:14:59.869Z,98331.64
2018-09-21T00:17:28.283Z,98324.55
2018-09-21T00:19:56.684Z,98323.48
2018-09-21T00:22:25.007Z,98324.66
2018-09-21T00:24:53.436Z,98323.08
2018-09-21T00:27:21.781Z,98326.59
2018-09-21T00:29:50.169Z,98326.19
2018-09-21T00:32:18.529Z,98313.91
2018-09-21T00:34:46.913Z,98308.23
2018-09-21T00:37:15.333Z,98306.38
2018-09-21T00:39:43.740Z,98306.54
2018-09-21T00:42:12.092Z,98298.28
2018-09-21T00:44:40.493Z,98294.34
2018-09-21T00:47:08.898Z,98289.89
2018-09-21T00:49:37.220Z,98284.48
2018-09-21T00:52:05.613Z,98290.83
2018-09-21T00:54:33.980Z,98285.06
2018-09-21T00:57:02.455Z,98282.22
2018-09-21T00:59:30.905Z,98279.86
2018-09-21T01:01:59.252Z,98278.61
2018-09-21T01:04:31.776Z,98274.84
2018-09-21T01:07:00.200Z,98269.72
2018-09-21T01:09:28.542Z,98271.60
2018-09-21T01:11:56.925Z,98258.86
2018-09-21T01:14:25.375Z,98260.00
2018-09-21T01:16:54.197Z,98260.08
2018-09-21T01:19:22.836Z,98249.02
2018-09-21T01:21:51.260Z,98239.77
2018-09-21T01:24:19.660Z,98254.03
2018-09-21T01:26:48.018Z,98250.63
2018-09-21T01:29:16.424Z,98247.26
2018-09-21T01:31:44.799Z,98242.51
2018-09-21T01:34:13.207Z,98247.91
2018-09-21T01:36:41.636Z,98239.14
2018-09-21T01:39:10.895Z,98235.73
2018-09-21T01:41:39.309Z,98234.06
2018-09-21T01:44:08.447Z,98236.66
2018-09-21T01:46:36.794Z,98222.01
2018-09-21T01:49:05.226Z,98226.30
2018-09-21T01:51:33.573Z,98228.52
2018-09-21T01:54:01.911Z,98229.77
2018-09-21T01:56:30.259Z,98222.66
2018-09-21T01:58:58.614Z,98215.17
2018-09-21T02:01:26.976Z,98217.72
2018-09-21T02:03:55.304Z,98220.73
2018-09-21T02:06:23.659Z,98213.08
2018-09-21T02:08:52.032Z,98203.64
2018-09-21T02:11:20.471Z,98203.20
2018-09-21T02:13:48.814Z,98200.45
2018-09-21T02:16:17.165Z,98188.02
2018-09-21T02:18:45.484Z,98183.55
2018-09-21T02:21:13.867Z,98180.30
2018-09-21T02:23:42.210Z,98181.88
2018-09-21T02:26:10.624Z,98178.87
2018-09-21T02:28:38.947Z,98176.69
2018-09-21T02:31:07.326Z,98175.95
2018-09-21T02:33:35.690Z,98171.55
2018-09-21T02:36:04.041Z,98171.34
2018-09-21T02:38:32.566Z,98161.91
2018-09-21T02:41:00.901Z,98166.64
2018-09-21T02:43:29.277Z,98161.69
2018-09-21T02:45:57.611Z,98162.00
2018-09-21T02:48:25.964Z,98156.00
2018-09-21T02:50:54.291Z,98148.23
2018-09-21T02:53:22.659Z,98146.39
2018-09-21T02:55:51.006Z,98135.42
2018-09-21T02:58:19.419Z,98136.00
2018-09-21T03:00:47.822Z,98128.88
2018-09-21T03:03:16.127Z,98124.58
2018-09-21T03:05:44.442Z,98123.95
2018-09-21T03:08:13.379Z,98122.62
2018-09-21T03:10:41.724Z,98119.81
2018-09-21T03:13:10.124Z,98115.77
2018-09-21T03:15:38.412Z,98108.09
2018-09-21T03:18:06.797Z,98118.41
2018-09-21T03:20:35.171Z,98112.70
2018-09-21T03:23:03.505Z,98107.84
2018-09-21T03:25:47.043Z,98112.84
2018-09-21T03:28:27.517Z,98106.52
2018-09-21T03:30:55.883Z,98100.52
2018-09-21T03:33:24.325Z,98092.89
2018-09-21T03:35:52.681Z,98095.73
2018-09-21T03:38:21.055Z,98092.55
2018-09-21T03:40:49.447Z,98090.05
2018-09-21T03:43:17.799Z,98085.28
2018-09-21T03:45:46.165Z,98074.70
2018-09-21T03:48:14.512Z,98068.62
2018-09-21T03:50:42.877Z,98068.78
2018-09-21T03:53:11.190Z,98067.59
2018-09-21T03:55:39.572Z,98071.99
2018-09-21T03:58:08.056Z,98065.83
2018-09-21T04:00:36.440Z,98068.13
2018-09-21T04:03:04.864Z,98057.23
2018-09-21T04:05:33.210Z,98054.09
2018-09-21T04:08:01.570Z,98057.64
2018-09-21T04:10:29.949Z,98051.63
2018-09-21T04:13:00.156Z,98044.66
2018-09-21T04:15:28.571Z,98045.81
2018-09-21T04:18:08.300Z,98043.73
2018-09-21T04:20:40.700Z,98031.39
2018-09-21T04:23:23.191Z,98034.80
2018-09-21T04:29:48.488Z,98028.70
2018-09-21T04:32:16.983Z,98024.23
2018-09-21T04:34:45.328Z,98025.78
2018-09-21T04:37:14.684Z,98014.40
2018-09-21T04:39:43.051Z,98010.44
2018-09-21T04:42:11.548Z,98010.06
2018-09-21T04:44:40.149Z,98011.02
2018-09-21T04:47:08.680Z,97998.16
2018-09-21T04:49:37.233Z,97990.16
2018-09-21T04:52:06.418Z,97987.63
2018-09-21T04:54:34.975Z,97979.16
2018-09-21T04:57:03.672Z,97977.88
2018-09-21T04:59:49.924Z,97974.88
2018-09-21T05:02:20.477Z,97973.35
2018-09-21T05:04:55.976Z,97962.77
2018-09-21T05:07:24.331Z,97967.56
2018-09-21T05:09:52.742Z,97963.31
2018-09-21T05:12:21.103Z,97958.62
2018-09-21T05:14:49.827Z,97965.36
2018-09-21T05:17:18.469Z,97968.88
2018-09-21T05:19:47.255Z,97953.00
2018-09-21T05:22:15.896Z,97945.78
2018-09-21T05:24:44.717Z,97955.33
2018-09-21T05:27:13.541Z,97951.36
2018-09-21T05:29:42.163Z,97946.55
2018-09-21T05:32:10.808Z,97946.46
2018-09-21T05:34:39.599Z,97933.30
2018-09-21T05:37:08.152Z,97932.00
2018-09-21T05:39:36.856Z,97923.07
2018-09-21T05:42:05.461Z,97914.05
2018-09-21T05:44:34.071Z,97918.75
2018-09-21T05:47:02.594Z,97912.86
2018-09-21T05:49:31.237Z,97901.88
2018-09-21T05:51:59.862Z,97899.27
2018-09-21T05:54:28.603Z,97890.45
2018-09-21T05:56:57.236Z,97885.02
2018-09-21T05:59:25.610Z,97880.75
2018-09-21T06:01:54.071Z,97873.90
2018-09-21T06:04:23.288Z,97877.10
2018-09-21T06:06:51.919Z,97875.59
2018-09-21T06:09:20.496Z,97873.87
2018-09-21T06:11:49.169Z,97874.59
2018-09-21T06:14:17.702Z,97867.58
2018-09-21T06:16:46.342Z,97871.91
2018-09-21T06:19:14.818Z,97862.80
2018-09-21T06:21:43.371Z,97865.52
2018-09-21T06:24:14.472Z,97861.08
2018-09-21T06:26:42.992Z,97853.56
2018-09-21T06:29:11.541Z,97845.93
2018-09-21T06:31:40.158Z,97847.27
2018-09-21T06:34:08.720Z,97841.28
2018-09-21T06:36:37.300Z,97833.49
2018-09-21T06:39:09.214Z,97836.98
2018-09-21T06:41:38.139Z,97846.12
2018-09-21T06:44:07.044Z,97839.78
2018-09-21T06:46:35.668Z,97839.48
2018-09-21T06:49:04.126Z,97833.68
2018-09-21T06:51:32.832Z,97847.69
2018-09-21T06:54:01.183Z,97845.58
2018-09-21T06:56:29.826Z,97841.38
2018-09-21T06:58:58.402Z,97839.09
2018-09-21T07:01:26.999Z,97839.39
2018-09-21T07:03:55.618Z,97850.61
2018-09-21T07:06:24.348Z,97842.92
2018-09-21T07:08:52.700Z,97838.80
2018-09-21T07:11:21.120Z,97838.09
2018-09-21T07:13:49.404Z,97828.86
2018-09-21T07:16:18.938Z,97827.88
2018-09-21T07:18:47.286Z,97823.25
2018-09-21T07:21:15.787Z,97821.30
2018-09-21T07:23:44.481Z,97812.20
2018-09-21T07:26:13.227Z,97807.28
2018-09-21T07:28:42.107Z,97805.41
2018-09-21T07:31:11.020Z,97818.25
2018-09-21T07:33:39.598Z,97815.48
2018-09-21T07:36:08.163Z,97813.22
2018-09-21T07:38:36.732Z,97822.45
2018-09-21T07:41:05.442Z,97819.02
2018-09-21T07:43:34.357Z,97819.72
2018-09-21T07:46:02.867Z,97821.55
2018-09-21T07:48:31.530Z,97824.45
2018-09-21T07:51:00.052Z,97814.83
2018-09-21T07:53:28.824Z,97811.45
2018-09-21T07:55:57.585Z,97807.41
2018-09-21T07:58:26.287Z,97814.27
2018-09-21T08:00:55.026Z,97811.41
2018-09-21T08:03:23.666Z,97807.67
2018-09-21T08:05:52.206Z,97810.36
2018-09-21T08:08:20.765Z,97812.05
2018-09-21T08:10:49.300Z,97810.88
2018-09-21T08:13:17.805Z,97810.85
2018-09-21T08:15:46.364Z,97795.68
2018-09-21T08:18:15.039Z,97795.05
2018-09-21T08:20:43.502Z,97799.06
2018-09-21T08:23:11.861Z,97799.06
2018-09-21T08:25:40.302Z,97791.31
2018-09-21T08:28:08.642Z,97775.79
2018-09-21T08:30:37.235Z,97790.48
2018-09-21T08:33:05.854Z,97775.31
2018-09-21T08:35:34.429Z,97782.56
2018-09-21T08:38:02.767Z,97776.21
2018-09-21T08:40:31.368Z,97784.39
2018-09-21T08:42:59.898Z,97773.98
2018-09-21T08:45:28.552Z,97766.06
2018-09-21T08:47:57.270Z,97776.42
2018-09-21T08:50:25.878Z,97778.91
2018-09-21T08:52:54.557Z,97772.58
2018-09-21T08:55:22.962Z,97784.72
2018-09-21T08:57:51.293Z,97781.02
2018-09-21T09:00:19.594Z,97786.61
2018-09-21T09:02:47.973Z,97779.69
2018-09-21T09:05:16.367Z,97778.05
2018-09-21T09:07:44.779Z,97777.33
2018-09-21T09:10:13.611Z,97776.58
2018-09-21T09:12:42.236Z,97783.64
2018-09-21T09:15:10.830Z,97775.70
2018-09-21T09:17:39.328Z,97778.67
2018-09-21T09:20:09.720Z,97786.33
2018-09-21T09:22:38.428Z,97783.13
2018-09-21T09:25:07.558Z,97766.53
2018-09-21T09:27:36.602Z,97767.55
2018-09-21T09:30:05.938Z,97752.10
2018-09-21T09:32:34.535Z,97758.36
2018-09-21T09:35:09.660Z,97753.70
2018-09-21T09:37:38.229Z,97759.92
2018-09-21T09:40:07.301Z,97753.90
2018-09-21T09:42:35.953Z,97748.53
2018-09-21T09:45:04.415Z,97776.21
2018-09-21T09:47:32.710Z,97736.11
2018-09-21T09:50:01.334Z,97735.59
2018-09-21T09:52:29.953Z,97760.13
2018-09-21T09:54:58.674Z,97751.45
2018-09-21T09:57:27.217Z,97736.52
2018-09-21T09:59:55.753Z,97734.56
2018-09-21T10:02:24.155Z,97735.55
2018-09-21T10:04:52.601Z,97725.67
2018-09-21T10:07:20.991Z,97728.25
2018-09-21T10:09:49.422Z,97726.98
2018-09-21T10:12:17.745Z,97726.75
2018-09-21T10:14:46.089Z,97741.33
2018-09-21T10:17:14.693Z,97740.68
2018-09-21T10:19:43.400Z,97727.32
2018-09-21T10:22:12.518Z,97711.36
2018-09-21T10:24:40.904Z,97706.47
2018-09-21T10:27:09.486Z,97714.12
2018-09-21T10:29:37.804Z,97728.44
2018-09-21T10:32:06.256Z,97713.63
2018-09-21T10:34:34.545Z,97694.19
2018-09-21T10:37:03.513Z,97699.61
2018-09-21T10:39:31.825Z,97692.71
2018-09-21T10:42:00.154Z,97693.34
2018-09-21T10:44:28.482Z,97716.69
2018-09-21T10:46:56.790Z,97692.97
2018-09-21T10:49:25.213Z,97698.00
2018-09-21T10:52:15.532Z,97688.28
2018-09-21T10:54:43.855Z,97701.67
2018-09-21T10:57:12.248Z,97691.41
2018-09-21T10:59:40.562Z,97697.72
2018-09-21T11:02:08.912Z,97701.27
2018-09-21T11:04:37.253Z,97686.57
2018-09-21T11:07:05.720Z,97694.19
2018-09-21T11:09:34.140Z,97692.69
2018-09-21T11:12:02.626Z,97688.44
2018-09-21T11:14:31.100Z,97676.63
2018-09-21T11:16:59.606Z,97687.06
2018-09-21T11:19:28.150Z,97658.03
2018-09-21T11:21:56.706Z,97700.33
2018-09-21T11:24:25.852Z,97660.67
2018-09-21T11:26:54.307Z,97670.26
2018-09-21T11:29:22.813Z,97660.89
2018-09-21T11:31:51.207Z,97640.47
2018-09-21T11:34:19.701Z,97660.78
2018-09-21T11:36:48.595Z,97667.38
2018-09-21T11:39:17.148Z,97684.22
2018-09-21T11:42:15.682Z,97674.84
2018-09-21T11:44:44.207Z,97680.78
2018-09-21T11:47:12.844Z,97680.07
2018-09-21T11:49:41.224Z,97677.37
2018-09-21T11:52:09.731Z,97671.77
2018-09-21T11:54:38.253Z,97713.14
2018-09-21T11:57:06.878Z,97680.48
2018-09-21T11:59:35.342Z,97704.39
2018-09-21T12:02:03.822Z,97706.48
2018-09-21T12:04:32.260Z,97745.33
2018-09-21T12:07:00.771Z,97854.23
2018-09-21T12:09:29.161Z,97872.22
2018-09-21T12:11:57.667Z,97888.14
2018-09-21T12:14:26.146Z,97923.70
2018-09-21T12:16:54.603Z,97922.77
2018-09-21T12:19:23.066Z,97914.73
2018-09-21T12:21:51.569Z,97904.02
2018-09-21T12:24:20.024Z,97930.54
2018-09-21T12:26:48.613Z,97929.70
2018-09-21T12:29:17.128Z,97951.31
2018-09-21T12:31:45.672Z,97947.38
2018-09-21T12:34:14.097Z,97961.44
2018-09-21T12:36:42.591Z,97975.80
2018-09-21T12:39:12.926Z,97974.62
2018-09-21T12:41:41.628Z,98006.16
2018-09-21T12:44:11.231Z,97986.65
2018-09-21T12:46:39.787Z,97970.92
2018-09-21T12:49:08.356Z,97979.59
2018-09-21T12:51:36.804Z,97978.03
2018-09-21T12:54:05.296Z,97989.23
2018-09-21T12:56:33.917Z,98005.50
2018-09-21T12:59:02.365Z,98026.27
2018-09-21T13:01:30.831Z,98013.11
2018-09-21T13:03:59.386Z,97999.91
2018-09-21T13:06:27.802Z,98018.17
2018-09-21T13:08:56.317Z,98023.56
2018-09-21T13:11:24.837Z,98035.30
2018-09-21T13:13:53.349Z,98025.64
2018-09-21T13:16:21.855Z,98039.92
2018-09-21T13:18:50.370Z,98049.25
2018-09-21T13:21:18.846Z,98036.44
2018-09-21T13:23:47.452Z,98058.50
2018-09-21T13:26:15.837Z,98035.03
2018-09-21T13:28:44.447Z,98017.09
2018-09-21T13:31:12.915Z,98019.09
2018-09-21T13:33:42.003Z,97989.72
2018-09-21T13:36:10.529Z,97979.98
2018-09-21T13:38:38.944Z,97969.70
2018-09-21T13:41:07.386Z,97990.97
2018-09-21T13:43:35.827Z,98002.30
2018-09-21T13:46:04.291Z,98022.57
2018-09-21T13:48:32.774Z,98038.58
2018-09-21T13:51:01.176Z,98071.34
2018-09-21T13:53:29.634Z,98066.08
2018-09-21T13:55:58.050Z,98054.03
2018-09-21T13:58:26.589Z,98077.73
2018-09-21T14:00:55.055Z,98089.40
2018-09-21T14:03:23.534Z,98084.64
2018-09-21T14:05:51.995Z,98086.34
2018-09-21T14:08:20.452Z,98057.95
2018-09-21T14:10:48.894Z,98040.81
2018-09-21T14:13:17.366Z,98043.63
2018-09-21T14:15:45.858Z,98052.30
2018-09-21T14:18:14.306Z,98058.39
2018-09-21T14:20:42.931Z,98049.87
2018-09-21T14:23:11.424Z,98049.61
2018-09-21T14:25:39.955Z,98056.91
2018-09-21T14:28:08.435Z,98056.21
2018-09-21T14:30:36.853Z,98039.70
2018-09-21T14:33:05.456Z,98057.11
2018-09-21T14:35:33.902Z,98078.41
2018-09-21T14:38:02.527Z,98066.73
2018-09-21T14:40:31.008Z,98075.47
2018-09-21T14:42:59.449Z,98060.56
2018-09-21T14:45:27.949Z,98067.88
2018-09-21T14:47:56.533Z,98064.91
2018-09-21T14:50:25.100Z,98047.83
2018-09-21T14:52:53.565Z,98030.20
2018-09-21T14:55:22.189Z,98019.16
2018-09-21T14:57:50.652Z,98026.28
2018-09-21T15:00:19.129Z,98010.91
2018-09-21T15:02:47.707Z,98023.60
2018-09-21T15:05:16.477Z,98069.27
2018-09-21T15:07:45.094Z,98082.31
2018-09-21T15:10:13.638Z,98091.45
2018-09-21T15:12:42.123Z,98088.32
2018-09-21T15:15:10.615Z,98083.45
2018-09-21T15:17:39.200Z,98068.43
2018-09-21T15:20:07.826Z,98061.94
2018-09-21T15:22:36.698Z,98079.61
2018-09-21T15:25:06.976Z,98096.88
2018-09-21T15:27:36.254Z,98076.05
2018-09-21T15:30:05.267Z,98048.04
2018-09-21T15:32:34.314Z,98043.46
2018-09-21T15:35:02.802Z,98051.41
2018-09-21T15:37:31.485Z,98059.89
2018-09-21T15:40:00.283Z,98042.02
2018-09-21T15:42:28.892Z,98047.34
2018-09-21T15:44:58.060Z,98047.62
2018-09-21T15:47:27.129Z,98045.16
2018-09-21T15:49:55.568Z,98038.08
2018-09-21T15:52:24.055Z,98058.13
2018-09-21T15:54:52.706Z,98100.74
2018-09-21T15:57:21.390Z,98114.59
2018-09-21T15:59:50.154Z,98103.39
2018-09-21T16:02:18.641Z,98125.48
2018-09-21T16:04:47.160Z,98140.53
2018-09-21T16:07:15.844Z,98140.36
2018-09-21T16:09:45.219Z,98148.04
2018-09-21T16:12:14.467Z,98158.03
2018-09-21T16:14:42.906Z,98150.20
2018-09-21T16:17:11.764Z,98145.13
2018-09-21T16:19:40.322Z,98146.84
2018-09-21T16:22:08.774Z,98137.62
2018-09-21T16:24:37.236Z,98134.58
2018-09-21T16:27:06.331Z,98142.02
2018-09-21T16:29:34.925Z,98133.28
2018-09-21T16:32:03.404Z,98141.34
2018-09-21T16:34:32.269Z,98146.25
2018-09-21T16:37:00.857Z,98161.80
2018-09-21T16:39:29.316Z,98150.62
2018-09-21T16:41:58.618Z,98154.79
2018-09-21T16:44:27.398Z,98165.02
2018-09-21T16:46:56.114Z,98160.33
2018-09-21T16:49:25.259Z,98163.70
2018-09-21T16:51:54.134Z,98161.86
2018-09-21T16:54:22.944Z,98165.26
2018-09-21T16:56:51.987Z,98174.38
2018-09-21T16:59:20.690Z,98166.27
2018-09-21T17:01:49.582Z,98176.73
2018-09-21T17:04:18.372Z,98184.25
2018-09-21T17:06:49.389Z,98191.79
2018-09-21T17:09:18.292Z,98189.30
2018-09-21T17:11:46.857Z,98194.03
2018-09-21T17:14:15.218Z,98198.55
2018-09-21T17:16:43.990Z,98209.23
2018-09-21T17:19:12.343Z,98220.06
2018-09-21T17:21:40.886Z,98211.41
2018-09-21T17:24:09.223Z,98223.36
2018-09-21T17:26:37.577Z,98227.44
2018-09-21T17:29:06.220Z,98228.00
2018-09-21T17:31:34.676Z,98231.31
2018-09-21T17:34:03.203Z,98257.47
2018-09-21T17:36:31.510Z,98247.52
2018-09-21T17:38:59.945Z,98255.69
2018-09-21T17:41:28.363Z,98261.23
2018-09-21T17:43:56.708Z,98257.01
2018-09-21T17:46:26.859Z,98263.41
2018-09-21T17:48:55.475Z,98278.55
2018-09-21T17:51:23.950Z,98286.09
2018-09-21T17:54:30.428Z,98296.14
2018-09-21T17:56:59.812Z,98293.44
2018-09-21T17:59:28.126Z,98291.28
2018-09-21T18:01:56.470Z,98301.20
2018-09-21T18:04:25.969Z,98294.31
2018-09-21T18:06:55.598Z,98306.55
2018-09-21T18:09:24.249Z,98319.61
2018-09-21T18:11:53.242Z,98328.34
2018-09-21T18:14:27.042Z,98333.89
2018-09-21T18:16:56.939Z,98341.08
2018-09-21T18:19:27.434Z,98334.39
2018-09-21T18:21:56.556Z,98338.06
2018-09-21T18:24:26.054Z,98337.22
2018-09-21T18:26:55.988Z,98348.14
2018-09-21T18:29:25.770Z,98361.84
2018-09-21T18:31:54.638Z,98366.85
2018-09-21T18:34:23.595Z,98366.82
2018-09-21T18:36:52.613Z,98379.11
2018-09-21T18:39:21.809Z,98379.75
2018-09-21T18:41:50.727Z,98386.14
2018-09-21T18:44:19.505Z,98388.98
2018-09-21T18:46:48.743Z,98395.69
2018-09-21T18:49:17.494Z,98409.26
2018-09-21T18:51:46.841Z,98415.42
2018-09-21T18:54:15.712Z,98423.96
2018-09-21T18:56:46.620Z,98427.52
2018-09-21T18:59:17.082Z,98442.04
2018-09-21T19:01:46.541Z,98442.83
2018-09-21T19:04:16.200Z,98444.05
2018-09-21T19:06:44.712Z,98451.91
2018-09-21T19:09:13.327Z,98451.54
2018-09-21T19:11:41.771Z,98451.97
2018-09-21T19:14:10.195Z,98456.90
2018-09-21T19:16:39.407Z,98457.22
2018-09-21T19:19:07.913Z,98465.75
2018-09-21T19:21:37.708Z,98470.48
2018-09-21T19:24:08.318Z,98468.13
2018-09-21T19:26:38.048Z,98468.59
2018-09-21T19:29:06.872Z,98480.45
2018-09-21T19:31:35.177Z,98482.91
2018-09-21T19:34:03.609Z,98482.95
2018-09-21T19:36:35.793Z,98484.36
2018-09-21T19:39:07.108Z,98482.42
2018-09-21T19:41:35.442Z,98487.15
2018-09-21T19:44:04.586Z,98482.52
2018-09-21T19:46:33.097Z,98485.69
2018-09-21T19:49:01.431Z,98488.39
2018-09-21T19:51:29.907Z,98491.64
2018-09-21T19:53:58.250Z,98498.86
2018-09-21T19:56:26.550Z,98505.97
2018-09-21T19:58:54.938Z,98511.84
2018-09-21T20:01:23.224Z,98513.63
2018-09-21T20:03:51.553Z,98521.25
2018-09-21T20:06:21.107Z,98520.70
2018-09-21T20:08:50.522Z,98539.95
2018-09-21T20:11:20.152Z,98532.77
2018-09-21T20:13:49.271Z,98536.41
2018-09-21T20:16:17.605Z,98548.54
2018-09-21T20:18:46.039Z,98539.39
2018-09-21T20:21:14.354Z,98551.32
2018-09-21T20:23:42.762Z,98542.33
2018-09-21T20:26:11.047Z,98554.53
2018-09-21T20:28:39.851Z,98563.27
2018-09-21T20:31:13.606Z,98562.52
2018-09-21T20:33:42.406Z,98558.48
2018-09-21T20:36:10.750Z,98565.79
2018-09-21T20:38:39.097Z,98566.23
2018-09-21T20:41:07.535Z,98566.50
2018-09-21T20:43:35.818Z,98574.28
2018-09-21T20:46:04.147Z,98580.22
2018-09-21T20:48:32.422Z,98582.44
2018-09-21T20:51:00.722Z,98583.28
2018-09-21T20:53:29.026Z,98589.11
2018-09-21T20:55:57.341Z,98588.49
2018-09-21T20:58:25.742Z,98596.09
2018-09-21T21:00:54.062Z,98595.98
2018-09-21T21:03:22.477Z,98595.37
2018-09-21T21:05:50.758Z,98599.25
2018-09-21T21:08:19.405Z,98599.39
2018-09-21T21:10:47.706Z,98603.57
2018-09-21T21:13:16.074Z,98604.12
2018-09-21T21:15:44.378Z,98613.05
2018-09-21T21:18:12.815Z,98606.72
2018-09-21T21:20:41.123Z,98613.48
2018-09-21T21:23:09.394Z,98615.92
2018-09-21T21:25:37.890Z,98620.95
2018-09-21T21:28:06.540Z,98619.30
2018-09-21T21:30:34.887Z,98615.77
2018-09-21T21:33:03.230Z,98615.31
2018-09-21T21:35:31.547Z,98619.86
2018-09-21T21:37:59.862Z,98620.55
2018-09-21T21:40:28.199Z,98603.06
2018-09-21T21:42:57.374Z,98618.76
2018-09-21T21:45:25.725Z,98610.26
2018-09-21T21:47:54.032Z,98619.91
2018-09-21T21:50:22.294Z,98623.12
2018-09-21T21:52:50.667Z,98632.55
2018-09-21T21:55:18.974Z,98628.92
2018-09-21T21:57:47.318Z,98627.58
2018-09-21T22:00:15.701Z,98620.02
2018-09-21T22:02:44.042Z,98628.23
2018-09-21T22:05:12.386Z,98618.37
2018-09-21T22:07:40.833Z,98634.88
2018-09-21T22:10:09.542Z,98625.36
2018-09-21T22:12:43.045Z,98624.07
2018-09-21T22:15:13.943Z,98627.89
2018-09-21T22:17:42.366Z,98624.64
2018-09-21T22:20:11.039Z,98630.27
2018-09-21T22:22:39.492Z,98626.81
2018-09-21T22:25:07.989Z,98635.33
2018-09-21T22:27:36.333Z,98634.91
2018-09-21T22:30:05.003Z,98633.39
2018-09-21T22:32:33.325Z,98633.23
2018-09-21T22:35:01.623Z,98636.09
2018-09-21T22:37:29.991Z,98644.91
2018-09-21T22:39:58.330Z,98645.85
2018-09-21T22:42:26.664Z,98649.84
2018-09-21T22:44:55.106Z,98660.16
2018-09-21T22:47:23.405Z,98657.74
2018-09-21T22:49:51.721Z,98666.84
2018-09-21T22:52:20.051Z,98663.05
2018-09-21T22:54:48.339Z,98662.45
2018-09-21T22:57:16.722Z,98664.52
2018-09-21T22:59:45.192Z,98669.28
2018-09-21T23:02:13.681Z,98672.83
2018-09-21T23:04:42.382Z,98673.56
2018-09-21T23:07:11.891Z,98678.49
2018-09-21T23:09:40.175Z,98684.45
2018-09-21T23:12:08.514Z,98693.83
2018-09-21T23:14:36.806Z,98696.22
2018-09-21T23:17:05.158Z,98694.30
2018-09-21T23:19:33.538Z,98690.44
2018-09-21T23:22:01.918Z,98695.34
2018-09-21T23:24:30.227Z,98702.69
2018-09-21T23:26:58.543Z,98703.53
2018-09-21T23:29:26.830Z,98695.66
2018-09-21T23:31:55.212Z,98703.23
2018-09-21T23:34:23.499Z,98701.30
2018-09-21T23:36:51.798Z,98701.84
2018-09-21T23:39:20.070Z,98704.33
2018-09-21T23:41:48.462Z,98717.48
2018-09-21T23:44:16.783Z,98701.84
2018-09-21T23:46:45.081Z,98717.16
2018-09-21T23:49:13.386Z,98711.97
2018-09-21T23:51:42.027Z,98723.02
2018-09-21T23:54:10.292Z,98724.55
2018-09-21T23:56:38.592Z,98732.88
2018-09-21T23:59:06.874Z,98733.25
